Time;durP1;ratioP1;P1;durP2;ratioP2;P2;SDS_P1;SDS_P2;PMS_P1;PMS_P2;Temp;Humidity;BMP_temperature;BMP_pressure;BME280_temperature;BME280_humidity;BME280_pressure;Samples;Min_cycle;Max_cycle;Signal;HPM_P1;HPM_P2
2021/03/15 00:00:34;;;;;;;13.37;2.80;;;7.10;99.90;;;;;;5078520;28;20283;-73
2021/03/15 00:03:00;;;;;;;13.27;3.33;;;7.20;99.90;;;;;;5083232;28;20201;-73
2021/03/15 00:05:27;;;;;;;13.30;3.27;;;7.20;99.90;;;;;;5079489;28;20204;-73
2021/03/15 00:07:54;;;;;;;15.40;3.63;;;7.20;99.90;;;;;;5078412;28;20224;-74
2021/03/15 00:10:21;;;;;;;17.40;3.83;;;7.30;99.90;;;;;;5080128;28;20750;-73
2021/03/15 00:12:47;;;;;;;17.87;3.67;;;7.30;99.90;;;;;;5077949;28;20212;-72
2021/03/15 00:15:17;;;;;;;16.60;3.70;;;7.30;99.90;;;;;;5079402;28;20645;-73
2021/03/15 00:17:44;;;;;;;18.80;3.90;;;7.30;99.90;;;;;;5078334;28;20236;-73
2021/03/15 00:20:13;;;;;;;15.77;4.33;;;7.30;99.90;;;;;;5078663;28;20578;-73
2021/03/15 00:40:50;;;;;;;14.90;4.27;;;7.30;99.90;;;;;;5061091;28;20239;-80
2021/03/15 00:43:17;;;;;;;12.80;4.93;;;7.40;99.90;;;;;;5093657;28;20357;-80
2021/03/15 00:45:43;;;;;;;20.37;5.80;;;7.40;99.90;;;;;;5102467;28;20729;-81
2021/03/15 00:48:10;;;;;;;26.03;5.50;;;7.30;99.90;;;;;;5089705;28;20664;-82
2021/03/15 00:50:41;;;;;;;10.70;5.17;;;7.40;99.90;;;;;;5082533;28;20280;-81
2021/03/15 00:53:08;;;;;;;18.77;5.43;;;7.40;99.90;;;;;;5085680;28;20211;-82
2021/03/15 00:55:34;;;;;;;15.90;5.60;;;7.40;99.90;;;;;;5085469;28;20590;-80
2021/03/15 00:58:02;;;;;;;15.07;5.83;;;7.50;99.90;;;;;;5093307;28;20333;-81
2021/03/15 01:00:30;;;;;;;16.07;6.23;;;7.50;99.90;;;;;;5096656;28;20220;-79
2021/03/15 01:02:57;;;;;;;21.97;5.97;;;7.50;99.90;;;;;;5097841;28;20201;-79
2021/03/15 01:05:27;;;;;;;18.57;7.43;;;7.60;99.90;;;;;;5103932;28;20222;-80
2021/03/15 01:07:54;;;;;;;18.70;6.53;;;7.60;99.90;;;;;;5096784;28;20229;-80
2021/03/15 01:10:23;;;;;;;21.27;7.30;;;7.60;99.90;;;;;;5086982;28;20211;-78
2021/03/15 01:12:49;;;;;;;15.37;6.97;;;7.60;99.90;;;;;;5078181;28;20209;-80
2021/03/15 01:15:19;;;;;;;13.23;6.57;;;7.60;99.90;;;;;;5090874;28;20586;-78
2021/03/15 01:17:45;;;;;;;15.77;7.20;;;7.60;99.90;;;;;;5102859;28;20674;-79
2021/03/15 01:20:12;;;;;;;16.93;7.43;;;7.70;99.90;;;;;;5108306;28;20287;-79
2021/03/15 01:22:39;;;;;;;17.00;7.30;;;7.70;99.90;;;;;;5092760;28;20237;-79
2021/03/15 01:25:06;;;;;;;21.50;8.80;;;7.70;99.90;;;;;;5099557;28;20208;-79
2021/03/15 01:27:33;;;;;;;18.20;7.30;;;7.70;99.90;;;;;;5094585;28;20224;-77
2021/03/15 01:29:59;;;;;;;16.97;7.33;;;7.70;99.90;;;;;;5077084;28;20256;-78
2021/03/15 01:32:27;;;;;;;16.23;7.83;;;7.70;99.90;;;;;;5091886;28;20745;-77
2021/03/15 01:34:53;;;;;;;13.57;7.27;;;7.70;99.90;;;;;;5084111;28;20266;-79
2021/03/15 01:37:19;;;;;;;12.07;7.10;;;7.70;99.90;;;;;;5089338;28;20203;-80
2021/03/15 01:39:46;;;;;;;19.43;7.57;;;7.70;99.90;;;;;;5094396;28;20235;-78
2021/03/15 01:42:12;;;;;;;14.87;7.53;;;7.70;99.90;;;;;;5096532;28;20291;-78
2021/03/15 01:44:39;;;;;;;19.47;7.73;;;7.80;99.90;;;;;;5106274;28;20292;-78
2021/03/15 01:47:05;;;;;;;18.07;8.77;;;7.80;99.90;;;;;;5097931;28;20311;-80
2021/03/15 01:49:32;;;;;;;16.33;7.90;;;7.80;99.90;;;;;;5098185;28;20631;-79
2021/03/15 01:51:59;;;;;;;14.17;7.80;;;7.80;99.90;;;;;;5085839;28;20206;-78
2021/03/15 01:54:28;;;;;;;18.07;8.43;;;7.80;99.90;;;;;;5085534;28;20245;-78
2021/03/15 01:56:54;;;;;;;19.80;9.23;;;7.80;99.90;;;;;;5095995;28;20241;-77
2021/03/15 01:59:21;;;;;;;18.90;9.77;;;7.90;99.90;;;;;;5096074;28;20287;-77
2021/03/15 02:01:50;;;;;;;17.03;9.80;;;7.90;99.90;;;;;;5091492;28;20685;-79
2021/03/15 02:04:17;;;;;;;24.43;10.43;;;7.80;99.90;;;;;;5099234;28;20291;-79
2021/03/15 02:06:45;;;;;;;19.43;9.13;;;7.90;99.90;;;;;;5097363;28;20221;-78
2021/03/15 02:09:12;;;;;;;20.17;9.73;;;7.90;99.90;;;;;;5093491;28;20296;-79
2021/03/15 02:11:50;;;;;;;19.77;9.40;;;7.90;99.90;;;;;;5094010;28;20279;-78
2021/03/15 02:14:31;;;;;;;20.03;9.47;;;7.90;99.90;;;;;;5082434;28;20629;-79
2021/03/15 02:17:04;;;;;;;24.87;9.43;;;7.80;99.90;;;;;;5085478;28;20207;-78
2021/03/15 02:20:13;;;;;;;27.83;10.17;;;7.90;99.90;;;;;;5084149;28;20613;-78
2021/03/15 02:22:51;;;;;;;19.63;9.50;;;7.90;99.90;;;;;;5102482;28;20287;-79
2021/03/15 02:26:07;;;;;;;17.30;9.13;;;7.90;99.90;;;;;;5101986;28;20287;-79
2021/03/15 02:29:11;;;;;;;25.33;9.80;;;7.90;99.90;;;;;;5080675;28;20283;-79
2021/03/15 02:32:15;;;;;;;20.30;9.67;;;7.80;99.90;;;;;;5092176;28;20263;-79
2021/03/15 02:35:05;;;;;;;16.37;9.30;;;7.80;99.90;;;;;;5087658;28;20245;-79
2021/03/15 02:37:34;;;;;;;21.37;8.77;;;7.90;99.90;;;;;;5097443;28;20298;-76
2021/03/15 02:40:07;;;;;;;25.90;10.70;;;7.80;99.90;;;;;;5093927;28;20298;-78
2021/03/15 02:42:36;;;;;;;23.13;9.93;;;7.80;99.90;;;;;;5087173;28;20265;-78
2021/03/15 02:45:05;;;;;;;26.50;9.83;;;7.80;99.90;;;;;;5105730;28;20264;-79
2021/03/15 02:47:34;;;;;;;19.27;8.67;;;7.90;99.90;;;;;;5112254;28;20208;-78
2021/03/15 02:50:05;;;;;;;17.13;9.57;;;7.80;99.90;;;;;;5110524;28;20239;-77
2021/03/15 02:52:32;;;;;;;21.17;9.57;;;7.80;99.90;;;;;;5112342;28;20224;-79
2021/03/15 02:55:01;;;;;;;23.53;9.17;;;7.80;99.90;;;;;;5115760;28;20212;-79
2021/03/15 02:57:29;;;;;;;21.17;9.47;;;7.80;99.90;;;;;;5118119;28;20188;-79
2021/03/15 02:59:57;;;;;;;24.97;10.07;;;7.90;99.90;;;;;;5123154;28;20211;-78
2021/03/15 03:02:25;;;;;;;23.10;9.87;;;7.90;99.90;;;;;;5118764;28;20188;-78
2021/03/15 03:04:52;;;;;;;26.90;10.43;;;7.90;99.90;;;;;;5112775;28;20201;-81
2021/03/15 03:07:21;;;;;;;30.27;10.50;;;7.90;99.90;;;;;;5116150;28;20315;-79
2021/03/15 03:09:48;;;;;;;24.17;9.93;;;7.90;99.90;;;;;;5093484;28;20200;-80
2021/03/15 03:12:17;;;;;;;25.83;8.87;;;7.80;99.90;;;;;;5090586;28;20693;-78
2021/03/15 03:14:46;;;;;;;18.10;9.03;;;7.80;99.90;;;;;;5097673;28;20260;-79
2021/03/15 03:17:13;;;;;;;19.03;8.80;;;7.70;99.90;;;;;;5089304;28;20204;-77
2021/03/15 03:19:41;;;;;;;18.83;7.90;;;7.70;99.90;;;;;;5092105;28;20192;-79
2021/03/15 03:22:09;;;;;;;23.50;8.77;;;7.60;99.90;;;;;;5095216;28;20197;-76
2021/03/15 03:24:39;;;;;;;25.87;8.77;;;7.60;99.90;;;;;;5082536;28;20203;-78
2021/03/15 03:27:07;;;;;;;19.63;9.20;;;7.50;99.90;;;;;;5089177;28;20246;-77
2021/03/15 03:29:35;;;;;;;20.63;8.87;;;7.50;99.90;;;;;;5088567;28;20196;-79
2021/03/15 03:32:02;;;;;;;20.17;8.57;;;7.40;99.90;;;;;;5090360;28;20218;-80
2021/03/15 03:34:28;;;;;;;19.70;9.07;;;7.40;99.90;;;;;;5101948;28;20282;-81
2021/03/15 03:36:55;;;;;;;19.10;8.70;;;7.40;99.90;;;;;;5089443;28;20280;-79
2021/03/15 03:39:21;;;;;;;24.40;9.00;;;7.40;99.90;;;;;;5087811;28;20337;-79
2021/03/15 03:41:49;;;;;;;21.17;8.77;;;7.40;99.90;;;;;;5092037;28;20219;-80
2021/03/15 03:44:15;;;;;;;23.80;9.37;;;7.40;99.90;;;;;;5103193;28;20284;-79
2021/03/15 03:46:42;;;;;;;19.73;8.73;;;7.40;99.90;;;;;;5085441;28;20232;-79
2021/03/15 03:49:10;;;;;;;14.20;8.70;;;7.40;99.90;;;;;;5087306;28;20288;-79
2021/03/15 03:51:44;;;;;;;20.43;9.57;;;7.40;99.90;;;;;;5087683;28;20204;-79
2021/03/15 03:54:15;;;;;;;16.43;9.10;;;7.20;99.90;;;;;;5087886;28;20658;-81
2021/03/15 03:56:48;;;;;;;19.63;8.40;;;7.10;99.90;;;;;;5078281;28;20197;-79
2021/03/15 03:59:19;;;;;;;21.10;8.73;;;7.00;99.90;;;;;;5091499;28;20219;-81
2021/03/15 04:01:49;;;;;;;22.57;9.10;;;6.90;99.90;;;;;;5086088;28;20212;-81
2021/03/15 04:04:19;;;;;;;15.83;7.60;;;6.80;99.90;;;;;;5090599;28;20657;-78
2021/03/15 04:06:46;;;;;;;19.70;8.43;;;6.70;99.90;;;;;;5091842;28;20229;-80
2021/03/15 04:09:15;;;;;;;17.60;7.93;;;6.60;99.90;;;;;;5091483;28;20208;-80
2021/03/15 04:11:45;;;;;;;14.07;7.70;;;6.60;99.90;;;;;;5091074;28;20239;-78
2021/03/15 04:14:16;;;;;;;21.30;8.57;;;6.60;99.90;;;;;;5088653;28;20206;-78
2021/03/15 04:16:44;;;;;;;13.70;7.30;;;6.60;99.90;;;;;;5094463;28;20653;-78
2021/03/15 04:19:12;;;;;;;14.47;7.87;;;6.50;99.90;;;;;;5089842;28;20204;-77
2021/03/15 04:21:40;;;;;;;14.63;7.57;;;6.60;99.90;;;;;;5100696;28;20312;-78
2021/03/15 04:24:10;;;;;;;15.13;7.43;;;6.50;99.90;;;;;;5090512;28;20338;-77
2021/03/15 04:26:38;;;;;;;16.23;8.40;;;6.60;99.90;;;;;;5089124;28;20236;-78
2021/03/15 04:29:05;;;;;;;15.27;8.07;;;6.60;99.90;;;;;;5082769;28;20748;-80
2021/03/15 04:31:32;;;;;;;16.53;7.43;;;6.70;99.90;;;;;;5088629;28;20204;-81
2021/03/15 04:34:00;;;;;;;14.63;8.53;;;6.70;99.90;;;;;;5087079;28;20291;-80
2021/03/15 04:36:27;;;;;;;13.43;7.93;;;6.70;99.90;;;;;;5108627;28;20286;-79
2021/03/15 04:38:54;;;;;;;18.90;8.90;;;6.80;99.90;;;;;;5096805;28;20289;-81
2021/03/15 04:41:21;;;;;;;15.73;7.93;;;6.80;99.90;;;;;;5095210;28;20283;-80
2021/03/15 04:43:49;;;;;;;14.63;8.37;;;6.90;99.90;;;;;;5094702;28;20209;-79
2021/03/15 04:46:17;;;;;;;13.47;8.07;;;6.90;99.90;;;;;;5106955;28;20214;-79
2021/03/15 04:48:44;;;;;;;14.60;7.70;;;6.90;99.90;;;;;;5088239;28;20659;-80
2021/03/15 04:51:12;;;;;;;16.67;7.70;;;6.80;99.90;;;;;;5101693;28;20229;-79
2021/03/15 04:53:40;;;;;;;13.70;7.67;;;6.80;99.90;;;;;;5102805;28;20200;-79
2021/03/15 04:56:10;;;;;;;15.77;7.93;;;6.80;99.90;;;;;;5097600;28;20208;-80
2021/03/15 04:58:40;;;;;;;15.87;6.77;;;6.80;99.90;;;;;;5087893;28;20211;-79
2021/03/15 05:01:08;;;;;;;15.07;7.80;;;6.70;99.90;;;;;;5102945;28;20273;-79
2021/03/15 05:03:35;;;;;;;15.43;6.93;;;6.70;99.90;;;;;;5094731;28;20207;-80
2021/03/15 05:06:03;;;;;;;16.10;7.17;;;6.60;99.90;;;;;;5090310;28;20297;-78
2021/03/15 05:08:35;;;;;;;13.87;6.87;;;6.60;99.90;;;;;;5094783;28;20285;-79
2021/03/15 05:11:02;;;;;;;11.77;6.90;;;6.50;99.90;;;;;;5095609;28;20197;-78
2021/03/15 05:13:29;;;;;;;12.27;5.97;;;6.30;99.90;;;;;;5090710;28;20206;-78
2021/03/15 05:15:58;;;;;;;14.97;6.40;;;6.30;99.90;;;;;;5093531;28;20290;-78
2021/03/15 05:18:27;;;;;;;15.57;6.97;;;6.20;99.90;;;;;;5089524;28;20217;-78
2021/03/15 05:20:54;;;;;;;17.98;8.63;;;6.20;99.90;;;;;;5097073;28;20451;-78
2021/03/15 05:23:21;;;;;;;16.37;7.57;;;6.10;99.90;;;;;;5088955;28;20196;-78
2021/03/15 05:25:51;;;;;;;21.07;8.13;;;6.10;99.90;;;;;;5082792;28;20287;-79
2021/03/15 05:28:21;;;;;;;17.43;8.00;;;6.00;99.90;;;;;;5095485;28;20653;-80
2021/03/15 05:30:49;;;;;;;15.87;7.40;;;6.00;99.90;;;;;;5089818;28;20202;-78
2021/03/15 05:33:18;;;;;;;13.40;6.80;;;5.90;99.90;;;;;;5092758;28;20295;-77
2021/03/15 05:35:47;;;;;;;19.47;7.43;;;5.80;99.90;;;;;;5077473;28;20203;-77
2021/03/15 05:38:13;;;;;;;18.70;7.37;;;5.80;99.90;;;;;;5085095;28;20308;-78
2021/03/15 05:40:42;;;;;;;18.83;7.13;;;5.70;99.90;;;;;;5088375;28;20209;-81
2021/03/15 05:43:32;;;;;;;15.13;6.90;;;5.70;99.90;;;;;;5083236;28;20300;-77
2021/03/15 05:46:19;;;;;;;16.27;7.33;;;5.60;99.90;;;;;;5074130;28;20218;-79
2021/03/15 05:49:07;;;;;;;15.97;7.53;;;5.60;99.90;;;;;;5092791;28;20214;-77
2021/03/15 05:52:07;;;;;;;16.27;7.33;;;5.60;99.90;;;;;;5091862;28;20311;-78
2021/03/15 05:55:10;;;;;;;21.63;7.23;;;5.50;99.90;;;;;;5084342;28;20569;-79
2021/03/15 05:58:06;;;;;;;19.90;8.03;;;5.40;99.90;;;;;;5092068;28;20223;-78
2021/03/15 06:00:51;;;;;;;15.90;7.53;;;5.40;99.90;;;;;;5086785;28;20262;-79
2021/03/15 06:03:31;;;;;;;13.43;7.60;;;5.40;99.90;;;;;;5073739;28;20206;-79
2021/03/15 06:06:02;;;;;;;16.70;7.63;;;5.50;99.90;;;;;;5080814;28;20200;-77
2021/03/15 06:08:35;;;;;;;13.57;7.90;;;5.50;99.90;;;;;;5089586;28;20771;-78
2021/03/15 06:11:05;;;;;;;16.77;8.57;;;5.50;99.90;;;;;;5077948;28;20596;-78
2021/03/15 06:13:33;;;;;;;20.02;11.25;;;5.60;99.90;;;;;;5088958;28;20519;-79
2021/03/15 06:16:01;;;;;;;17.10;9.60;;;5.80;99.90;;;;;;5089586;28;20227;-78
2021/03/15 06:18:28;;;;;;;21.40;8.33;;;5.90;99.90;;;;;;5087263;28;20205;-78
2021/03/15 06:20:55;;;;;;;21.23;9.47;;;5.90;99.90;;;;;;5087058;28;20677;-79
2021/03/15 06:23:23;;;;;;;17.67;9.17;;;6.00;99.90;;;;;;5080628;28;20197;-79
2021/03/15 06:25:49;;;;;;;22.97;9.00;;;6.00;99.90;;;;;;5083025;28;20292;-78
2021/03/15 06:28:17;;;;;;;17.40;8.37;;;6.10;99.90;;;;;;5084581;28;20314;-77
2021/03/15 06:30:45;;;;;;;16.90;8.33;;;6.10;99.90;;;;;;5096346;28;20195;-79
2021/03/15 06:33:13;;;;;;;18.80;8.80;;;6.20;99.90;;;;;;5084874;28;20219;-78
2021/03/15 06:35:42;;;;;;;19.27;9.00;;;6.20;99.90;;;;;;5084173;28;20229;-78
2021/03/15 06:38:09;;;;;;;18.63;8.13;;;6.30;99.90;;;;;;5080996;28;20238;-77
2021/03/15 06:40:39;;;;;;;23.53;8.30;;;6.40;99.90;;;;;;5079970;28;20351;-78
2021/03/15 06:43:05;;;;;;;22.07;8.03;;;6.40;99.90;;;;;;5085951;28;20331;-80
2021/03/15 06:45:33;;;;;;;18.73;8.13;;;6.50;99.90;;;;;;5087408;28;20194;-78
2021/03/15 06:48:03;;;;;;;18.90;8.77;;;6.60;99.90;;;;;;5089938;28;20230;-78
2021/03/15 06:50:30;;;;;;;25.03;8.20;;;6.60;99.90;;;;;;5086520;28;20287;-78
2021/03/15 06:52:58;;;;;;;18.03;7.90;;;6.80;99.90;;;;;;5089549;28;20198;-78
2021/03/15 06:55:27;;;;;;;15.97;7.63;;;6.90;99.90;;;;;;5095884;28;20281;-81
2021/03/15 06:57:54;;;;;;;16.67;7.60;;;6.90;99.90;;;;;;5090714;28;20293;-78
2021/03/15 07:00:21;;;;;;;24.97;7.40;;;6.90;99.90;;;;;;5091582;28;20647;-78
2021/03/15 07:02:57;;;;;;;20.20;7.80;;;7.00;99.90;;;;;;5080913;28;20245;-78
2021/03/15 07:05:23;;;;;;;16.97;6.73;;;7.00;99.90;;;;;;5088425;28;20211;-77
2021/03/15 07:07:52;;;;;;;17.87;6.97;;;7.10;99.90;;;;;;5083842;28;20593;-78
2021/03/15 07:10:21;;;;;;;16.67;7.57;;;7.10;99.90;;;;;;5091299;28;20663;-80
2021/03/15 07:12:48;;;;;;;18.30;6.97;;;7.20;99.90;;;;;;5082271;28;20201;-79
2021/03/15 07:15:16;;;;;;;23.13;8.37;;;7.20;99.90;;;;;;5083584;28;20216;-80
2021/03/15 07:17:43;;;;;;;26.70;7.00;;;7.30;99.90;;;;;;5090216;28;20272;-79
2021/03/15 07:20:11;;;;;;;22.93;7.33;;;7.40;99.90;;;;;;5106738;28;20223;-81
2021/03/15 07:22:44;;;;;;;16.97;7.17;;;7.40;99.90;;;;;;5102655;28;20209;-80
2021/03/15 07:25:14;;;;;;;15.63;6.43;;;7.50;99.90;;;;;;5077307;28;20710;-80
2021/03/15 07:27:43;;;;;;;18.43;7.00;;;7.30;99.90;;;;;;5084063;28;20224;-80
2021/03/15 07:30:31;;;;;;;18.77;6.67;;;7.30;99.90;;;;;;5080656;28;20209;-80
2021/03/15 07:33:00;;;;;;;18.43;6.60;;;7.40;99.90;;;;;;5077488;28;20551;-80
2021/03/15 07:35:28;;;;;;;19.87;6.63;;;7.40;99.90;;;;;;5092756;28;20286;-80
2021/03/15 07:37:55;;;;;;;21.40;6.97;;;7.40;99.90;;;;;;5090608;28;20597;-79
2021/03/15 07:40:36;;;;;;;20.10;6.43;;;7.60;99.90;;;;;;5091413;28;20291;-79
2021/03/15 07:43:04;;;;;;;16.93;6.07;;;7.60;99.90;;;;;;5097004;28;20232;-80
2021/03/15 07:45:43;;;;;;;19.70;5.90;;;7.60;99.90;;;;;;5096335;28;20225;-80
2021/03/15 07:48:17;;;;;;;19.97;6.33;;;7.40;99.90;;;;;;5092384;28;20222;-80
2021/03/15 07:50:55;;;;;;;18.97;5.60;;;7.40;99.90;;;;;;5085864;28;20642;-80
2021/03/15 07:53:39;;;;;;;12.57;4.97;;;7.30;99.90;;;;;;5088491;28;20621;-80
2021/03/15 07:56:07;;;;;;;17.70;6.27;;;7.20;99.90;;;;;;5092632;28;20572;-80
2021/03/15 07:58:35;;;;;;;15.47;5.43;;;7.20;99.90;;;;;;5088850;28;20197;-79
2021/03/15 08:01:04;;;;;;;32.27;6.00;;;7.40;99.90;;;;;;5083233;28;20233;-80
2021/03/15 08:03:31;;;;;;;17.10;5.17;;;7.60;99.90;;;;;;5088100;28;20723;-80
2021/03/15 08:05:59;;;;;;;19.87;5.33;;;7.70;99.90;;;;;;5082739;28;20243;-82
2021/03/15 08:08:26;;;;;;;18.23;5.53;;;7.80;99.90;;;;;;5103812;28;20635;-80
2021/03/15 08:10:53;;;;;;;14.70;5.03;;;7.70;99.90;;;;;;5101639;28;20294;-79
2021/03/15 08:13:22;;;;;;;12.03;4.60;;;7.60;99.90;;;;;;5098290;28;20289;-80
2021/03/15 08:15:51;;;;;;;16.57;5.00;;;7.60;99.90;;;;;;5092944;28;20195;-79
2021/03/15 08:18:23;;;;;;;14.57;5.00;;;7.70;99.90;;;;;;5096560;28;20204;-80
2021/03/15 08:20:52;;;;;;;12.50;4.73;;;8.00;99.90;;;;;;5089766;28;20238;-81
2021/03/15 08:23:20;;;;;;;16.87;4.73;;;8.20;99.90;;;;;;5094891;28;20197;-82
2021/03/15 08:25:48;;;;;;;16.73;4.03;;;8.40;99.90;;;;;;5111681;28;20206;-78
2021/03/15 08:28:15;;;;;;;11.20;3.43;;;8.40;99.90;;;;;;5084073;28;20312;-78
2021/03/15 08:30:49;;;;;;;12.40;4.20;;;8.40;99.90;;;;;;5080159;28;20671;-82
2021/03/15 08:33:18;;;;;;;13.57;3.97;;;8.30;99.90;;;;;;5098770;28;20207;-82
2021/03/15 08:35:46;;;;;;;11.93;3.33;;;8.10;99.90;;;;;;5085685;28;20203;-81
2021/03/15 08:38:16;;;;;;;11.80;3.97;;;8.10;99.90;;;;;;5081994;28;20202;-79
2021/03/15 08:40:56;;;;;;;11.03;4.07;;;8.10;99.90;;;;;;5095284;28;20677;-81
2021/03/15 08:43:41;;;;;;;16.80;4.63;;;8.20;99.90;;;;;;5089049;28;20673;-81
2021/03/15 08:46:11;;;;;;;12.37;3.13;;;8.10;99.90;;;;;;5077296;28;20223;-82
2021/03/15 08:48:54;;;;;;;15.60;3.43;;;8.00;99.90;;;;;;5084560;28;20224;-81
2021/03/15 08:51:49;;;;;;;11.03;2.80;;;8.00;99.90;;;;;;5095546;28;20231;-81
2021/03/15 08:54:35;;;;;;;14.73;3.67;;;7.90;99.90;;;;;;5089924;28;20192;-81
2021/03/15 08:57:02;;;;;;;8.23;2.40;;;8.00;99.90;;;;;;5092362;28;20715;-81
2021/03/15 08:59:33;;;;;;;13.67;3.03;;;8.20;99.90;;;;;;5089821;28;20277;-81
2021/03/15 09:02:05;;;;;;;12.33;2.40;;;8.50;99.90;;;;;;5086094;28;20210;-81
2021/03/15 09:04:40;;;;;;;8.70;2.30;;;8.70;99.90;;;;;;5084668;28;20193;-81
2021/03/15 09:07:39;;;;;;;8.93;2.03;;;9.10;99.90;;;;;;5078650;28;20587;-83
2021/03/15 09:10:42;;;;;;;9.33;2.43;;;9.30;99.90;;;;;;5091908;28;20204;-81
2021/03/15 09:13:27;;;;;;;10.83;1.90;;;9.30;99.90;;;;;;5076145;28;20204;-80
2021/03/15 09:15:57;;;;;;;8.83;2.07;;;8.90;99.90;;;;;;5086646;28;20214;-82
2021/03/15 09:18:56;;;;;;;7.47;2.00;;;8.90;99.90;;;;;;5079864;28;20204;-78
2021/03/15 09:21:51;;;;;;;10.83;2.00;;;8.60;99.90;;;;;;5088940;28;20208;-79
2021/03/15 09:24:46;;;;;;;4.43;1.50;;;8.50;99.90;;;;;;5088052;28;20646;-78
2021/03/15 09:27:36;;;;;;;7.87;2.00;;;8.60;99.90;;;;;;5080693;28;20598;-78
2021/03/15 09:30:07;;;;;;;12.77;1.87;;;8.50;99.90;;;;;;5092733;28;20268;-78
2021/03/15 09:32:35;;;;;;;5.80;1.47;;;8.60;99.90;;;;;;5102907;28;20197;-78
2021/03/15 09:35:18;;;;;;;9.63;1.67;;;8.90;99.90;;;;;;5109118;28;20224;-78
2021/03/15 09:37:49;;;;;;;8.80;1.90;;;9.30;99.90;;;;;;5109326;28;20229;-78
2021/03/15 09:40:17;;;;;;;9.93;1.77;;;9.60;99.90;;;;;;5098273;28;20229;-77
2021/03/15 09:42:43;;;;;;;8.67;1.70;;;9.60;99.90;;;;;;5106773;28;20197;-78
2021/03/15 09:45:13;;;;;;;9.30;1.90;;;9.40;99.90;;;;;;5098251;28;20614;-80
2021/03/15 09:47:39;;;;;;;8.40;1.73;;;9.20;99.90;;;;;;5105922;28;20223;-79
2021/03/15 09:50:18;;;;;;;11.40;1.40;;;9.20;99.90;;;;;;5099893;28;20193;-78
2021/03/15 09:52:44;;;;;;;8.13;1.40;;;9.40;99.90;;;;;;5086924;28;20653;-77
2021/03/15 09:55:10;;;;;;;11.17;1.20;;;9.60;99.90;;;;;;5082282;28;20282;-78
2021/03/15 09:57:37;;;;;;;5.87;0.90;;;9.50;99.90;;;;;;5094157;28;20222;-78
2021/03/15 10:00:09;;;;;;;10.63;2.40;;;9.40;99.90;;;;;;5072194;28;20197;-79
2021/03/15 10:02:36;;;;;;;6.87;2.03;;;9.20;99.90;;;;;;5109934;28;20529;-78
2021/03/15 10:05:02;;;;;;;10.13;1.70;;;9.00;99.90;;;;;;5114487;28;20199;-80
2021/03/15 10:07:29;;;;;;;7.37;1.50;;;9.00;99.90;;;;;;5115648;28;20587;-78
2021/03/15 10:09:56;;;;;;;12.17;1.60;;;9.10;99.90;;;;;;5111374;28;20264;-78
2021/03/15 10:12:24;;;;;;;8.63;1.40;;;9.30;99.90;;;;;;5112135;28;20281;-79
2021/03/15 10:15:00;;;;;;;9.27;1.83;;;9.50;99.90;;;;;;5115104;28;20197;-79
2021/03/15 10:17:27;;;;;;;9.13;1.67;;;9.50;99.90;;;;;;5115096;28;20288;-78
2021/03/15 10:19:54;;;;;;;9.47;1.90;;;9.70;99.90;;;;;;5115219;28;20234;-81
2021/03/15 10:22:21;;;;;;;8.07;1.40;;;9.70;99.90;;;;;;5114702;28;20201;-80
2021/03/15 10:24:50;;;;;;;7.37;1.20;;;9.80;99.90;;;;;;5114652;28;20202;-79
2021/03/15 10:27:19;;;;;;;8.37;1.50;;;10.00;99.90;;;;;;5114337;28;20250;-79
2021/03/15 10:29:53;;;;;;;4.63;1.17;;;10.00;99.90;;;;;;5117635;28;20204;-78
2021/03/15 10:32:22;;;;;;;9.00;1.53;;;10.30;99.90;;;;;;5114899;28;20205;-79
2021/03/15 10:34:57;;;;;;;11.60;1.47;;;10.90;99.90;;;;;;5115148;28;20537;-79
2021/03/15 10:37:25;;;;;;;10.63;1.40;;;10.30;99.90;;;;;;5106381;28;20639;-81
2021/03/15 10:39:54;;;;;;;9.83;1.77;;;9.90;99.90;;;;;;5106035;28;20656;-81
2021/03/15 10:42:23;;;;;;;9.37;1.23;;;10.00;99.90;;;;;;5114673;28;20289;-79
2021/03/15 10:44:50;;;;;;;15.27;2.30;;;10.40;99.90;;;;;;5114372;28;20287;-82
2021/03/15 10:47:30;;;;;;;11.37;1.63;;;10.50;99.90;;;;;;5114458;28;20244;-78
2021/03/15 10:49:57;;;;;;;8.60;1.60;;;10.80;99.90;;;;;;5114506;28;20200;-79
2021/03/15 10:52:28;;;;;;;7.47;1.43;;;10.70;99.90;;;;;;5114346;28;20208;-79
2021/03/15 10:54:55;;;;;;;6.87;1.53;;;10.50;99.90;;;;;;5114581;28;20258;-81
2021/03/15 10:57:22;;;;;;;5.13;1.23;;;10.40;99.90;;;;;;5114452;28;20676;-81
2021/03/15 10:59:51;;;;;;;10.03;1.50;;;10.00;99.90;;;;;;5114047;28;20275;-78
2021/03/15 11:02:23;;;;;;;9.17;1.70;;;9.70;99.90;;;;;;5113831;28;20239;-80
2021/03/15 11:04:56;;;;;;;5.83;1.20;;;9.60;99.90;;;;;;5105622;28;20294;-82
2021/03/15 11:07:27;;;;;;;7.73;1.40;;;9.50;99.90;;;;;;5114049;28;20556;-79
2021/03/15 11:09:56;;;;;;;3.33;0.93;;;9.60;99.90;;;;;;5113755;28;20632;-82
2021/03/15 11:12:40;;;;;;;5.87;1.20;;;10.20;99.90;;;;;;5114045;28;20199;-79
2021/03/15 11:15:08;;;;;;;9.07;1.47;;;10.30;99.90;;;;;;5113972;28;20202;-79
2021/03/15 11:17:35;;;;;;;10.13;1.80;;;10.20;99.90;;;;;;5113609;28;20195;-80
2021/03/15 11:20:02;;;;;;;5.87;1.17;;;10.00;99.90;;;;;;5094021;28;20288;-79
2021/03/15 11:22:28;;;;;;;6.13;1.20;;;10.40;99.90;;;;;;5098735;28;20209;-79
2021/03/15 11:25:09;;;;;;;9.13;1.30;;;10.30;99.90;;;;;;5096275;28;20246;-78
2021/03/15 11:27:36;;;;;;;7.27;1.50;;;10.10;99.90;;;;;;5086366;28;20251;-79
2021/03/15 11:30:05;;;;;;;10.53;1.40;;;10.20;99.90;;;;;;5090541;28;20275;-81
2021/03/15 11:32:31;;;;;;;8.53;1.43;;;10.50;99.90;;;;;;5099627;28;20284;-79
2021/03/15 11:34:58;;;;;;;7.43;1.30;;;10.60;99.90;;;;;;5120051;28;20196;-79
2021/03/15 11:37:25;;;;;;;6.10;1.30;;;10.60;99.90;;;;;;5086938;28;20299;-80
2021/03/15 11:39:52;;;;;;;2.70;0.70;;;10.10;99.90;;;;;;5103164;28;20670;-79
2021/03/15 11:42:28;;;;;;;7.60;1.47;;;9.80;99.90;;;;;;5099719;28;20938;-80
2021/03/15 11:44:54;;;;;;;2.70;0.73;;;9.60;99.90;;;;;;5093608;28;20216;-80
2021/03/15 11:47:20;;;;;;;5.43;0.87;;;9.40;99.90;;;;;;5102919;28;20358;-82
2021/03/15 11:49:47;;;;;;;7.63;0.70;;;9.60;99.90;;;;;;5117356;28;20253;-81
2021/03/15 11:52:23;;;;;;;2.93;0.80;;;10.00;99.90;;;;;;5084216;28;20206;-79
2021/03/15 11:54:49;;;;;;;3.47;0.77;;;10.20;99.90;;;;;;5094495;28;20203;-79
2021/03/15 11:57:16;;;;;;;5.60;1.10;;;10.30;99.90;;;;;;5101681;28;20281;-82
2021/03/15 11:59:43;;;;;;;7.60;0.80;;;10.00;99.90;;;;;;5084411;28;20287;-81
2021/03/15 12:02:09;;;;;;;5.23;0.83;;;10.00;99.90;;;;;;5078828;28;20200;-80
2021/03/15 12:04:36;;;;;;;9.90;0.80;;;9.80;99.90;;;;;;5098205;28;20231;-81
2021/03/15 12:07:03;;;;;;;2.40;0.60;;;9.90;99.90;;;;;;5109526;28;20223;-79
2021/03/15 12:09:29;;;;;;;6.90;1.00;;;10.40;99.90;;;;;;5093659;28;20192;-79
2021/03/15 12:11:55;;;;;;;7.70;0.80;;;10.80;99.90;;;;;;5089201;28;20251;-80
2021/03/15 12:14:22;;;;;;;7.63;1.03;;;10.50;99.90;;;;;;5082935;28;20655;-82
2021/03/15 12:16:49;;;;;;;3.10;0.90;;;10.50;99.90;;;;;;5100442;28;20298;-79
2021/03/15 12:19:16;;;;;;;4.73;0.93;;;10.00;99.90;;;;;;5099872;28;20286;-80
2021/03/15 12:21:42;;;;;;;4.10;1.30;;;9.20;99.90;;;;;;5098385;28;20279;-79
2021/03/15 12:24:09;;;;;;;4.67;0.77;;;8.70;99.90;;;;;;5081991;28;20208;-80
2021/03/15 12:26:36;;;;;;;7.03;1.10;;;8.50;99.90;;;;;;5081191;28;20246;-79
2021/03/15 12:29:02;;;;;;;8.57;0.90;;;8.70;99.90;;;;;;5093964;28;20625;-80
2021/03/15 12:31:29;;;;;;;4.93;1.27;;;9.10;99.90;;;;;;5092131;28;20281;-79
2021/03/15 12:33:56;;;;;;;4.73;0.87;;;9.50;99.90;;;;;;5085772;28;20291;-81
2021/03/15 12:36:22;;;;;;;7.80;1.37;;;9.40;99.90;;;;;;5091056;28;20786;-78
2021/03/15 12:38:49;;;;;;;8.03;1.10;;;9.50;99.90;;;;;;5077935;28;20212;-78
2021/03/15 12:41:15;;;;;;;6.33;1.30;;;9.70;99.90;;;;;;5092682;28;20225;-79
2021/03/15 12:43:42;;;;;;;10.17;1.60;;;9.60;99.90;;;;;;5095107;28;20228;-78
2021/03/15 12:46:11;;;;;;;6.73;1.27;;;9.70;99.90;;;;;;5078624;28;20671;-80
2021/03/15 12:48:40;;;;;;;8.77;1.30;;;9.60;99.90;;;;;;5078834;28;20585;-79
2021/03/15 12:51:07;;;;;;;5.87;1.23;;;9.20;99.90;;;;;;5093052;28;20213;-79
2021/03/15 12:53:33;;;;;;;5.13;0.90;;;8.50;99.90;;;;;;5107102;28;20413;-79
2021/03/15 12:56:00;;;;;;;7.43;0.67;;;8.10;99.90;;;;;;5088816;28;20608;-81
2021/03/15 12:58:26;;;;;;;4.53;0.90;;;7.90;99.90;;;;;;5080882;28;20235;-81
2021/03/15 13:00:53;;;;;;;7.10;0.90;;;7.90;99.90;;;;;;5086434;28;20245;-81
2021/03/15 13:03:19;;;;;;;5.27;0.90;;;8.00;99.90;;;;;;5089384;28;20640;-81
2021/03/15 13:05:45;;;;;;;10.70;0.70;;;8.30;99.90;;;;;;5075048;28;20245;-82
2021/03/15 13:08:13;;;;;;;7.20;1.23;;;8.40;99.90;;;;;;5074768;28;20228;-81
2021/03/15 13:10:39;;;;;;;5.77;1.23;;;8.80;99.90;;;;;;5075036;28;20255;-83
2021/03/15 13:13:05;;;;;;;8.03;1.03;;;9.40;99.90;;;;;;5088270;28;20204;-79
2021/03/15 13:15:32;;;;;;;5.57;1.23;;;9.70;99.90;;;;;;5082296;28;20284;-81
2021/03/15 13:17:59;;;;;;;9.60;1.40;;;10.00;99.90;;;;;;5106719;28;20256;-81
2021/03/15 13:20:26;;;;;;;8.90;1.23;;;10.00;99.90;;;;;;5113760;28;20232;-80
2021/03/15 13:22:52;;;;;;;4.10;0.90;;;9.60;99.90;;;;;;5081968;28;20741;-82